createdAt,value
2022-08-08T00:01:13.119Z,57.70
2022-08-08T00:04:28.328Z,57.74
2022-08-08T00:07:12.525Z,57.69
2022-08-08T00:09:55.253Z,57.68
2022-08-08T00:12:31.671Z,57.61
2022-08-08T00:15:24.371Z,57.58
2022-08-08T00:18:21.171Z,57.79
2022-08-08T00:20:58.593Z,57.88
2022-08-08T00:23:43.349Z,58.11
2022-08-08T00:26:30.025Z,57.89
2022-08-08T00:29:17.498Z,58.36
2022-08-08T00:32:20.244Z,57.97
2022-08-08T00:35:21.102Z,57.83
2022-08-08T00:38:32.212Z,57.96
2022-08-08T00:42:08.607Z,58.36
2022-08-08T00:45:29.352Z,58.32
2022-08-08T00:48:29.429Z,58.26
2022-08-08T00:51:08.265Z,57.99
2022-08-08T00:54:13.804Z,58.19
2022-08-08T00:57:12.769Z,58.40
2022-08-08T01:00:31.189Z,58.36
2022-08-08T01:03:57.546Z,58.53
2022-08-08T01:06:27.426Z,58.31
2022-08-08T01:09:34.955Z,58.44
2022-08-08T01:12:37.053Z,58.43
2022-08-08T01:15:53.293Z,58.20
2022-08-08T01:18:52.909Z,58.14
2022-08-08T01:22:12.195Z,58.31
2022-08-08T01:25:00.373Z,58.45
2022-08-08T01:27:46.356Z,58.59
2022-08-08T01:30:25.624Z,58.28
2022-08-08T01:33:27.592Z,58.57
2022-08-08T01:35:54.642Z,58.39
2022-08-08T01:38:37.113Z,58.52
2022-08-08T01:41:18.522Z,58.69
2022-08-08T01:44:03.644Z,58.36
2022-08-08T01:46:41.354Z,58.61
2022-08-08T01:49:22.758Z,58.60
2022-08-08T01:52:29.287Z,58.59
2022-08-08T01:55:25.813Z,58.73
2022-08-08T01:58:10.815Z,58.75
2022-08-08T02:01:17.312Z,58.66
2022-08-08T02:03:54.629Z,58.97
2022-08-08T02:06:36.928Z,58.87
2022-08-08T02:09:17.955Z,58.86
2022-08-08T02:11:59.141Z,58.84
2022-08-08T02:14:55.259Z,58.80
2022-08-08T02:17:44.360Z,58.76
2022-08-08T02:21:00.851Z,58.97
2022-08-08T02:23:35.407Z,58.97
2022-08-08T02:26:17.064Z,59.14
2022-08-08T02:28:59.540Z,59.12
2022-08-08T02:32:05.487Z,58.86
2022-08-08T02:35:07.817Z,58.74
2022-08-08T02:37:52.278Z,59.09
2022-08-08T02:40:29.845Z,58.83
2022-08-08T02:44:37.276Z,59.26
2022-08-08T02:47:10.846Z,58.92
2022-08-08T02:50:19.312Z,59.06
2022-08-08T02:53:24.489Z,58.84
2022-08-08T02:56:15.874Z,59.03
2022-08-08T02:59:25.944Z,59.18
2022-08-08T03:02:30.404Z,59.06
2022-08-08T03:05:45.442Z,58.76
2022-08-08T03:08:38.202Z,59.07
2022-08-08T03:11:25.735Z,58.89
2022-08-08T03:15:59.703Z,59.14
2022-08-08T03:17:39.479Z,58.99
2022-08-08T03:20:13.852Z,59.05
2022-08-08T03:22:47.924Z,59.00
2022-08-08T03:25:18.669Z,59.10
2022-08-08T03:27:57.705Z,59.20
2022-08-08T03:30:24.887Z,58.96
2022-08-08T03:33:56.745Z,59.20
2022-08-08T03:35:58.963Z,58.95
2022-08-08T03:38:57.107Z,59.01
2022-08-08T03:41:43.119Z,59.09
2022-08-08T03:44:00.427Z,59.03
2022-08-08T03:46:32.621Z,58.98
2022-08-08T03:49:09.854Z,59.06
2022-08-08T03:51:57.204Z,58.97
2022-08-08T03:54:41.699Z,59.05
2022-08-08T03:58:29.983Z,59.24
2022-08-08T04:00:11.336Z,59.06
2022-08-08T04:02:51.808Z,58.79
2022-08-08T04:05:28.209Z,59.17
2022-08-08T04:07:57.900Z,59.12
2022-08-08T04:10:26.022Z,59.16
2022-08-08T04:13:00.012Z,59.18
2022-08-08T04:15:38.355Z,59.23
2022-08-08T04:18:06.205Z,59.11
2022-08-08T04:20:36.237Z,59.26
2022-08-08T04:23:07.770Z,59.32
2022-08-08T04:25:38.405Z,59.13
2022-08-08T04:28:36.882Z,59.14
2022-08-08T04:30:55.295Z,59.22
2022-08-08T04:33:24.619Z,59.23
2022-08-08T04:35:53.925Z,59.34
2022-08-08T04:38:23.193Z,59.42
2022-08-08T04:40:51.763Z,59.50
2022-08-08T04:43:22.552Z,59.40
2022-08-08T04:45:59.524Z,59.32
2022-08-08T04:48:26.432Z,59.29
2022-08-08T04:50:53.509Z,59.40
2022-08-08T04:54:27.325Z,59.21
2022-08-08T04:56:07.638Z,59.16
2022-08-08T04:58:35.131Z,58.82
2022-08-08T05:01:09.064Z,59.02
2022-08-08T05:04:11.317Z,59.42
2022-08-08T05:06:28.954Z,58.24
2022-08-08T05:09:02.968Z,57.81
2022-08-08T05:11:39.399Z,57.63
2022-08-08T05:14:12.176Z,57.56
2022-08-08T05:16:52.889Z,57.55
2022-08-08T05:20:12.278Z,58.16
2022-08-08T05:22:13.738Z,58.35
2022-08-08T05:24:48.505Z,58.95
2022-08-08T05:27:16.042Z,58.85
2022-08-08T05:29:42.973Z,58.98
2022-08-08T05:32:09.933Z,59.19
2022-08-08T05:34:49.185Z,59.19
2022-08-08T05:37:39.268Z,59.25
2022-08-08T05:40:14.656Z,59.12
2022-08-08T05:42:46.021Z,59.20
2022-08-08T05:45:25.372Z,59.09
2022-08-08T05:48:08.123Z,58.47
2022-08-08T05:50:36.550Z,58.32
2022-08-08T05:53:53.660Z,58.57
2022-08-08T05:56:10.633Z,58.72
2022-08-08T05:58:58.006Z,59.00
2022-08-08T06:01:56.612Z,58.90
2022-08-08T06:04:24.507Z,59.20
2022-08-08T06:07:01.614Z,59.20
2022-08-08T06:09:58.936Z,59.21
2022-08-08T06:12:30.052Z,59.12
2022-08-08T06:15:02.774Z,59.48
2022-08-08T06:17:51.333Z,59.22
2022-08-08T06:20:20.968Z,59.40
2022-08-08T06:22:49.303Z,59.51
2022-08-08T06:25:18.417Z,59.41
2022-08-08T06:28:07.434Z,59.53
2022-08-08T06:30:36.331Z,60.03
2022-08-08T06:33:13.164Z,59.60
2022-08-08T06:36:07.821Z,59.43
2022-08-08T06:38:39.305Z,58.79
2022-08-08T06:41:13.212Z,58.45
2022-08-08T06:43:47.702Z,58.68
2022-08-08T06:46:24.346Z,59.39
2022-08-08T06:48:51.423Z,59.87
2022-08-08T06:51:22.402Z,59.40
2022-08-08T06:53:51.041Z,59.59
2022-08-08T06:56:24.382Z,59.55
2022-08-08T06:58:51.442Z,59.54
2022-08-08T07:02:18.075Z,59.68
2022-08-08T07:04:40.395Z,59.59
2022-08-08T07:07:11.561Z,59.21
2022-08-08T07:10:08.260Z,59.45
2022-08-08T07:12:43.041Z,59.83
2022-08-08T07:15:31.994Z,59.82
2022-08-08T07:18:36.064Z,60.03
2022-08-08T07:21:18.379Z,59.92
2022-08-08T07:24:09.693Z,59.87
2022-08-08T07:26:40.394Z,59.92
2022-08-08T07:29:08.096Z,59.65
2022-08-08T07:31:38.799Z,59.78
2022-08-08T07:34:08.770Z,59.79
2022-08-08T07:36:42.042Z,59.67
2022-08-08T07:39:22.556Z,60.11
2022-08-08T07:42:05.042Z,59.63
2022-08-08T07:44:37.421Z,59.70
2022-08-08T07:47:05.553Z,59.40
2022-08-08T07:49:32.623Z,59.76
2022-08-08T07:52:02.782Z,59.56
2022-08-08T07:54:43.598Z,59.47
2022-08-08T07:57:27.247Z,59.48
2022-08-08T07:59:59.907Z,59.34
2022-08-08T08:02:53.268Z,59.44
2022-08-08T08:05:45.273Z,58.11
2022-08-08T08:08:34.151Z,58.15
2022-08-08T08:11:04.291Z,57.72
2022-08-08T08:14:07.600Z,57.94
2022-08-08T08:16:40.966Z,58.11
2022-08-08T08:19:14.825Z,58.17
2022-08-08T08:21:57.790Z,58.05
2022-08-08T08:24:30.570Z,57.99
2022-08-08T08:27:00.122Z,57.88
2022-08-08T08:29:30.438Z,57.61
2022-08-08T08:32:03.191Z,57.71
2022-08-08T08:34:32.327Z,57.83
2022-08-08T08:37:08.505Z,57.99
2022-08-08T08:40:00.278Z,57.90
2022-08-08T08:42:32.025Z,57.52
2022-08-08T08:45:21.432Z,57.45
2022-08-08T08:47:58.383Z,57.18
2022-08-08T08:50:33.770Z,56.79
2022-08-08T08:53:27.511Z,56.43
2022-08-08T08:55:59.259Z,56.23
2022-08-08T08:58:41.581Z,55.86
2022-08-08T09:01:13.121Z,56.14
2022-08-08T09:03:47.105Z,56.17
2022-08-08T09:06:34.155Z,55.82
2022-08-08T09:09:26.215Z,56.59
2022-08-08T09:12:07.631Z,55.45
2022-08-08T09:14:42.097Z,54.67
2022-08-08T09:17:17.363Z,54.29
2022-08-08T09:22:00.131Z,54.04
2022-08-08T09:22:35.731Z,54.08
2022-08-08T09:25:04.737Z,54.74
2022-08-08T09:27:56.979Z,55.48
2022-08-08T09:30:20.144Z,55.77
2022-08-08T09:33:11.856Z,55.87
2022-08-08T09:35:49.059Z,56.29
2022-08-08T09:38:31.856Z,56.42
2022-08-08T09:41:05.037Z,56.38
2022-08-08T09:43:40.864Z,56.58
2022-08-08T09:46:31.096Z,56.10
2022-08-08T09:49:18.211Z,56.41
2022-08-08T09:52:06.719Z,56.66
2022-08-08T09:54:45.772Z,56.77
2022-08-08T09:57:19.034Z,56.66
2022-08-08T10:00:21.035Z,56.58
2022-08-08T10:02:41.089Z,57.05
2022-08-08T10:05:15.167Z,56.95
2022-08-08T10:07:51.549Z,57.14
2022-08-08T10:10:50.101Z,56.78
2022-08-08T10:13:26.067Z,57.15
2022-08-08T10:16:01.921Z,57.15
2022-08-08T10:18:35.772Z,57.44
2022-08-08T10:21:26.161Z,57.17
2022-08-08T10:23:59.991Z,57.34
2022-08-08T10:26:57.268Z,57.19
2022-08-08T10:29:38.382Z,57.18
2022-08-08T10:32:33.987Z,57.05
2022-08-08T10:35:11.862Z,56.61
2022-08-08T10:38:07.983Z,56.75
2022-08-08T10:40:38.480Z,56.35
2022-08-08T10:43:07.194Z,56.59
2022-08-08T10:45:56.411Z,56.47
2022-08-08T10:48:38.869Z,56.75
2022-08-08T10:51:30.873Z,56.73
2022-08-08T10:54:00.219Z,56.86
2022-08-08T10:56:36.382Z,56.87
2022-08-08T10:59:14.107Z,56.65
2022-08-08T11:01:49.347Z,56.63
2022-08-08T11:04:39.292Z,56.47
2022-08-08T11:07:07.229Z,56.74
2022-08-08T11:09:35.252Z,56.92
2022-08-08T11:12:12.548Z,57.15
2022-08-08T11:14:57.365Z,57.01
2022-08-08T11:17:59.934Z,57.07
2022-08-08T11:20:18.070Z,57.21
2022-08-08T11:22:54.323Z,56.24
2022-08-08T11:25:53.057Z,56.48
2022-08-08T11:28:16.886Z,56.10
2022-08-08T11:30:50.285Z,55.85
2022-08-08T11:33:53.135Z,55.98
2022-08-08T11:36:13.431Z,55.13
2022-08-08T11:38:53.937Z,55.48
2022-08-08T11:41:24.406Z,55.59
2022-08-08T11:43:53.925Z,55.39
2022-08-08T11:46:28.025Z,55.13
2022-08-08T11:48:58.380Z,55.42
2022-08-08T11:51:29.910Z,55.46
2022-08-08T11:54:27.167Z,55.37
2022-08-08T11:56:58.323Z,55.16
2022-08-08T12:00:01.306Z,54.97
2022-08-08T12:02:41.697Z,55.56
2022-08-08T12:05:12.514Z,56.03
2022-08-08T12:07:50.299Z,55.75
2022-08-08T12:10:24.968Z,56.04
2022-08-08T12:13:01.145Z,56.22
2022-08-08T12:15:42.704Z,56.36
2022-08-08T12:18:27.749Z,56.38
2022-08-08T12:20:58.769Z,56.18
2022-08-08T12:23:42.736Z,56.24
2022-08-08T12:26:41.649Z,56.42
2022-08-08T12:29:42.068Z,56.14
2022-08-08T12:32:20.115Z,55.85
2022-08-08T12:35:04.161Z,56.05
2022-08-08T12:37:41.586Z,55.93
2022-08-08T12:40:23.747Z,56.08
2022-08-08T12:42:52.817Z,56.04
2022-08-08T12:45:58.516Z,56.13
2022-08-08T12:48:38.064Z,56.14
2022-08-08T12:51:11.448Z,56.19
2022-08-08T12:53:58.773Z,56.22
2022-08-08T12:56:38.071Z,56.09
2022-08-08T12:59:27.193Z,56.34
2022-08-08T13:01:56.845Z,56.53
2022-08-08T13:04:26.993Z,56.04
2022-08-08T13:07:11.947Z,56.17
2022-08-08T13:10:04.843Z,56.15
2022-08-08T13:12:44.472Z,56.08
2022-08-08T13:15:19.516Z,55.12
2022-08-08T13:17:54.046Z,55.67
2022-08-08T13:20:45.515Z,54.86
2022-08-08T13:23:41.782Z,55.53
2022-08-08T13:26:14.661Z,55.91
2022-08-08T13:28:45.920Z,55.58
2022-08-08T13:31:17.137Z,55.92
2022-08-08T13:33:49.715Z,55.67
2022-08-08T13:36:25.741Z,55.96
2022-08-08T13:38:53.611Z,56.07
2022-08-08T13:41:21.811Z,55.57
2022-08-08T13:43:49.788Z,55.53
2022-08-08T13:46:27.098Z,55.71
2022-08-08T13:49:11.437Z,55.57
2022-08-08T13:52:35.759Z,55.58
2022-08-08T13:55:06.554Z,55.63
2022-08-08T13:58:07.049Z,55.67
2022-08-08T14:00:23.399Z,55.75
2022-08-08T14:03:07.682Z,55.50
2022-08-08T14:05:57.642Z,55.71
2022-08-08T14:08:29.878Z,55.41
2022-08-08T14:11:01.776Z,55.61
2022-08-08T14:13:34.311Z,55.64
2022-08-08T14:16:15.873Z,55.46
2022-08-08T14:18:58.179Z,55.39
2022-08-08T14:21:48.836Z,55.66
2022-08-08T14:24:34.830Z,55.71
2022-08-08T14:27:07.884Z,56.12
2022-08-08T14:29:40.325Z,56.26
2022-08-08T14:32:12.767Z,55.98
2022-08-08T14:34:53.542Z,55.48
2022-08-08T14:37:27.823Z,55.47
2022-08-08T14:40:05.971Z,55.32
2022-08-08T14:42:54.462Z,55.06
2022-08-08T14:45:33.101Z,55.07
2022-08-08T14:48:16.489Z,54.76
2022-08-08T14:50:46.932Z,54.93
2022-08-08T14:53:16.575Z,55.02
2022-08-08T14:55:45.104Z,55.08
2022-08-08T14:58:19.726Z,54.84
2022-08-08T15:00:49.435Z,54.68
2022-08-08T15:03:17.501Z,54.94
2022-08-08T15:05:54.297Z,54.89
2022-08-08T15:08:35.252Z,54.90
2022-08-08T15:11:19.195Z,54.54
2022-08-08T15:14:03.008Z,54.95
2022-08-08T15:16:34.241Z,55.02
2022-08-08T15:19:02.476Z,55.01
2022-08-08T15:21:30.167Z,55.33
2022-08-08T15:23:58.042Z,55.20
2022-08-08T15:26:28.955Z,55.18
2022-08-08T15:28:57.366Z,55.18
2022-08-08T15:31:55.527Z,55.53
2022-08-08T15:34:28.795Z,55.22
2022-08-08T15:37:04.993Z,55.71
2022-08-08T15:39:38.196Z,55.64
2022-08-08T15:42:10.259Z,55.27
2022-08-08T15:44:40.637Z,55.77
2022-08-08T15:47:16.047Z,55.66
2022-08-08T15:49:49.272Z,55.35
2022-08-08T15:52:18.384Z,55.37
2022-08-08T15:54:51.609Z,55.63
2022-08-08T15:57:21.970Z,55.94
2022-08-08T16:00:25.344Z,56.12
2022-08-08T16:02:44.588Z,55.59
2022-08-08T16:05:23.541Z,55.64
2022-08-08T16:07:53.875Z,55.75
2022-08-08T16:13:04.199Z,55.83
2022-08-08T16:13:30.874Z,56.35
2022-08-08T16:16:09.086Z,56.05
2022-08-08T16:18:40.869Z,56.01
2022-08-08T16:21:26.091Z,56.17
2022-08-08T16:23:56.911Z,56.02
2022-08-08T16:26:34.460Z,56.14
2022-08-08T16:29:08.956Z,55.83
2022-08-08T16:31:41.270Z,56.22
2022-08-08T16:34:10.336Z,56.22
2022-08-08T16:36:42.458Z,56.16
2022-08-08T16:39:28.062Z,56.33
2022-08-08T16:42:01.070Z,55.83
2022-08-08T16:44:34.248Z,55.86
2022-08-08T16:47:40.471Z,56.33
2022-08-08T16:50:15.589Z,55.83
2022-08-08T16:55:00.955Z,56.15
2022-08-08T16:55:53.446Z,56.11
2022-08-08T16:58:25.547Z,55.91
2022-08-08T17:00:53.836Z,56.25
2022-08-08T17:03:25.310Z,56.26
2022-08-08T17:06:36.032Z,56.46
2022-08-08T17:08:57.182Z,55.76
2022-08-08T17:11:28.074Z,55.13
2022-08-08T17:14:17.766Z,55.48
2022-08-08T17:16:51.863Z,55.19
2022-08-08T17:19:25.483Z,55.21
2022-08-08T17:21:54.484Z,55.51
2022-08-08T17:24:27.814Z,55.68
2022-08-08T17:26:58.040Z,54.80
2022-08-08T17:29:26.881Z,55.46
2022-08-08T17:31:53.824Z,55.01
2022-08-08T17:34:48.454Z,54.49
2022-08-08T17:37:09.272Z,54.79
2022-08-08T17:40:03.572Z,54.72
2022-08-08T17:42:27.954Z,54.77
2022-08-08T17:44:55.150Z,54.64
2022-08-08T17:47:28.223Z,54.48
2022-08-08T17:50:06.330Z,55.07
2022-08-08T17:52:35.530Z,55.02
2022-08-08T17:55:05.643Z,54.87
2022-08-08T17:57:38.427Z,54.70
2022-08-08T18:00:13.361Z,55.10
2022-08-08T18:02:58.094Z,54.73
2022-08-08T18:05:48.315Z,54.63
2022-08-08T18:08:38.386Z,54.70
2022-08-08T18:11:17.052Z,54.75
2022-08-08T18:13:46.335Z,54.67
2022-08-08T18:16:20.459Z,54.86
2022-08-08T18:18:56.398Z,55.38
2022-08-08T18:22:00.109Z,55.59
2022-08-08T18:24:21.459Z,55.85
2022-08-08T18:26:54.484Z,56.06
2022-08-08T18:29:29.750Z,55.54
2022-08-08T18:31:59.310Z,56.02
2022-08-08T18:34:27.772Z,56.33
2022-08-08T18:36:55.981Z,55.94
2022-08-08T18:39:27.816Z,56.04
2022-08-08T18:41:59.744Z,56.33
2022-08-08T18:44:34.733Z,56.21
2022-08-08T18:47:03.487Z,56.65
2022-08-08T18:49:54.803Z,56.36
2022-08-08T18:52:22.793Z,56.20
2022-08-08T18:54:59.781Z,56.55
2022-08-08T18:57:31.638Z,56.29
2022-08-08T19:00:03.106Z,56.35
2022-08-08T19:02:30.219Z,56.71
2022-08-08T19:04:57.435Z,56.49
2022-08-08T19:07:29.982Z,56.66
2022-08-08T19:10:14.653Z,56.82
2022-08-08T19:12:44.686Z,56.35
2022-08-08T19:15:21.791Z,56.71
2022-08-08T19:18:32.461Z,56.65
2022-08-08T19:20:40.213Z,56.63
2022-08-08T19:23:10.931Z,56.91
2022-08-08T19:26:19.750Z,57.00
2022-08-08T19:28:25.740Z,56.68
2022-08-08T19:31:04.244Z,56.86
2022-08-08T19:33:51.849Z,56.74
2022-08-08T19:36:27.507Z,56.91
2022-08-08T19:38:56.404Z,56.57
2022-08-08T19:41:33.651Z,56.62
2022-08-08T19:44:12.844Z,56.63
2022-08-08T19:46:50.855Z,56.97
2022-08-08T19:49:19.061Z,57.41
2022-08-08T19:51:46.282Z,57.07
2022-08-08T19:54:16.276Z,57.06
2022-08-08T19:56:48.811Z,57.15
2022-08-08T19:59:22.233Z,57.32
2022-08-08T20:02:03.090Z,56.99
2022-08-08T20:04:33.485Z,56.90
2022-08-08T20:08:30.226Z,57.28
2022-08-08T20:09:56.222Z,57.00
2022-08-08T20:12:32.911Z,57.14
2022-08-08T20:15:14.968Z,56.95
2022-08-08T20:17:46.349Z,57.15
2022-08-08T20:20:19.021Z,57.12
2022-08-08T20:22:52.599Z,57.15
2022-08-08T20:25:26.407Z,57.17
2022-08-08T20:27:57.414Z,56.88
2022-08-08T20:30:53.039Z,57.20
2022-08-08T20:35:58.190Z,57.05
2022-08-08T20:38:32.195Z,57.09
2022-08-08T20:41:16.961Z,57.16
2022-08-08T20:43:49.569Z,57.22
2022-08-08T20:46:25.336Z,57.17
2022-08-08T20:48:58.307Z,57.20
2022-08-08T20:51:32.378Z,57.13
2022-08-08T20:54:13.815Z,57.46
2022-08-08T20:57:04.595Z,57.32
2022-08-08T20:59:29.613Z,56.99
2022-08-08T21:02:06.670Z,57.33
2022-08-08T21:04:36.922Z,57.32
2022-08-08T21:07:13.240Z,57.41
2022-08-08T21:10:02.242Z,57.24
2022-08-08T21:12:37.002Z,57.38
2022-08-08T21:15:09.460Z,57.46
2022-08-08T21:17:37.295Z,57.53
2022-08-08T21:20:06.550Z,57.90
2022-08-08T21:22:34.312Z,57.58
2022-08-08T21:25:02.100Z,58.21
2022-08-08T21:28:05.358Z,57.58
2022-08-08T21:30:21.659Z,57.55
2022-08-08T21:32:52.059Z,57.90
2022-08-08T21:36:15.114Z,57.88
2022-08-08T21:38:16.481Z,57.78
2022-08-08T21:40:55.984Z,57.92
2022-08-08T21:43:32.974Z,58.04
2022-08-08T21:48:07.424Z,58.20
2022-08-08T21:48:51.778Z,57.97
2022-08-08T21:52:09.744Z,57.78
2022-08-08T21:54:31.914Z,57.81
2022-08-08T21:56:56.146Z,58.32
2022-08-08T21:59:23.279Z,58.12
2022-08-08T22:01:52.295Z,58.38
2022-08-08T22:04:24.781Z,58.21
2022-08-08T22:06:53.632Z,58.25
2022-08-08T22:09:26.910Z,58.06
2022-08-08T22:12:09.286Z,58.06
2022-08-08T22:14:37.132Z,58.36
2022-08-08T22:17:05.426Z,58.35
2022-08-08T22:20:13.046Z,58.16
2022-08-08T22:22:24.405Z,58.54
2022-08-08T22:24:55.841Z,58.25
2022-08-08T22:27:38.903Z,58.70
2022-08-08T22:30:13.546Z,58.46
2022-08-08T22:32:40.953Z,58.52
2022-08-08T22:35:08.651Z,58.47
2022-08-08T22:37:53.850Z,58.72
2022-08-08T22:40:22.061Z,58.69
2022-08-08T22:42:49.091Z,58.67
2022-08-08T22:45:16.873Z,58.72
2022-08-08T22:47:47.413Z,58.66
2022-08-08T22:50:25.883Z,58.55
2022-08-08T22:54:28.373Z,58.49
2022-08-08T22:55:59.007Z,59.11
2022-08-08T22:58:33.939Z,58.77
2022-08-08T23:01:30.564Z,58.79
2022-08-08T23:03:55.565Z,58.54
2022-08-08T23:06:25.121Z,58.41
2022-08-08T23:08:55.352Z,58.72
2022-08-08T23:11:30.969Z,58.63
2022-08-08T23:14:15.714Z,58.80
2022-08-08T23:16:47.011Z,58.77
2022-08-08T23:19:21.728Z,58.62
2022-08-08T23:21:48.828Z,58.77
2022-08-08T23:24:22.363Z,58.93
2022-08-08T23:26:53.117Z,58.97
2022-08-08T23:29:25.154Z,58.72
2022-08-08T23:31:52.322Z,58.51
2022-08-08T23:34:19.897Z,58.84
2022-08-08T23:36:48.206Z,58.85
2022-08-08T23:39:15.964Z,58.91
2022-08-08T23:41:46.063Z,58.72
2022-08-08T23:44:18.698Z,58.93
2022-08-08T23:49:00.077Z,58.86
2022-08-08T23:49:34.179Z,58.90
2022-08-08T23:52:05.956Z,58.94
2022-08-08T23:54:43.540Z,58.59
2022-08-08T23:57:38.812Z,58.67
